METAR EVRA 171320Z 33007KT CAVOK 21/14 Q1017 NOSIG =

[28 APR 2012] Riga Starting Summer Season

Riga STarting Summer Season

Summer is coming closer, birds singing and sun shining through clouds. However, no matter what is the real weather, this Saturday, April 28, you can experience most of the summer in Riga, because we are officially opening the summer season and providing full ATC service in and around Riga from 16:00 to 21:00 Zulu. We invite all pilots to a common greeting of summer!

Day: Saturday, April 28
Time: 16:00z - 21:00z

Charts: http://www.lv-vacc.org/index.php/pilots/charts
FREE FS9/FSX scenery available here: http://www.lv-vacc.org/index.php/pilots/scenery-downlaods

For news and updates follow us on twitter @EVRR_FIR and http://facebook.com/VatsimLatvia

Controllers Online

PositionControllerOnline
No controllers currently online

Booked ATC Today

No ATC booked yet.
Be the first for today!
* Times are UTC

The time is now

UTC: 

Local: 

Latvia vACC on twitter